createdAt,value
2022-08-03T00:02:20.263Z,20.40
2022-08-03T00:04:48.845Z,20.30
2022-08-03T00:07:17.732Z,20.30
2022-08-03T00:09:47.486Z,20.20
2022-08-03T00:12:16.166Z,20.20
2022-08-03T00:14:44.787Z,20.20
2022-08-03T00:17:13.193Z,20.20
2022-08-03T00:19:41.683Z,20.20
2022-08-03T00:22:10.213Z,20.10
2022-08-03T00:24:38.695Z,20.10
2022-08-03T00:27:08.473Z,20.00
2022-08-03T00:29:57.604Z,20.10
2022-08-03T00:32:28.700Z,20.10
2022-08-03T00:34:58.598Z,20.10
2022-08-03T00:37:41.527Z,20.10
2022-08-03T00:40:13.515Z,20.10
2022-08-03T00:42:54.616Z,20.10
2022-08-03T00:45:24.376Z,20.00
2022-08-03T00:47:52.941Z,20.00
2022-08-03T00:50:23.887Z,20.00
2022-08-03T00:52:55.204Z,20.00
2022-08-03T00:55:24.406Z,20.00
2022-08-03T00:57:54.422Z,20.00
2022-08-03T01:00:25.336Z,20.10
2022-08-03T01:02:54.978Z,20.00
2022-08-03T01:05:23.829Z,19.90
2022-08-03T01:08:03.167Z,19.90
2022-08-03T01:10:38.895Z,19.90
2022-08-03T01:14:01.333Z,19.90
2022-08-03T01:16:16.695Z,19.90
2022-08-03T01:18:52.096Z,19.80
2022-08-03T01:21:27.634Z,19.80
2022-08-03T01:24:06.608Z,19.70
2022-08-03T01:27:06.273Z,19.80
2022-08-03T01:30:07.086Z,19.70
2022-08-03T01:32:58.670Z,19.70
2022-08-03T01:35:36.693Z,19.60
2022-08-03T01:38:14.531Z,19.60
2022-08-03T01:40:45.307Z,19.60
2022-08-03T01:44:27.357Z,19.60
2022-08-03T01:46:09.707Z,19.50
2022-08-03T01:48:40.732Z,19.40
2022-08-03T01:51:11.435Z,19.60
2022-08-03T01:53:43.362Z,19.50
2022-08-03T01:56:12.940Z,19.50
2022-08-03T01:58:43.104Z,19.50
2022-08-03T02:01:13.793Z,19.50
2022-08-03T02:04:00.485Z,19.50
2022-08-03T02:07:01.275Z,19.40
2022-08-03T02:09:23.250Z,19.40
2022-08-03T02:11:53.474Z,19.40
2022-08-03T02:14:23.140Z,19.40
2022-08-03T02:16:53.896Z,19.40
2022-08-03T02:19:23.450Z,19.40
2022-08-03T02:21:56.746Z,19.40
2022-08-03T02:24:30.349Z,19.30
2022-08-03T02:27:00.930Z,19.30
2022-08-03T02:29:39.846Z,19.30
2022-08-03T02:32:15.821Z,19.30
2022-08-03T02:34:48.526Z,19.30
2022-08-03T02:37:20.513Z,19.30
2022-08-03T02:39:52.021Z,19.30
2022-08-03T02:42:24.257Z,19.40
2022-08-03T02:44:56.329Z,19.30
2022-08-03T02:47:28.828Z,19.40
2022-08-03T02:50:18.414Z,19.30
2022-08-03T02:52:49.167Z,19.30
2022-08-03T02:55:19.067Z,19.30
2022-08-03T02:57:48.435Z,19.20
2022-08-03T03:00:19.639Z,19.40
2022-08-03T03:03:00.410Z,19.20
2022-08-03T03:05:53.053Z,19.20
2022-08-03T03:08:20.781Z,19.20
2022-08-03T03:10:55.859Z,19.20
2022-08-03T03:13:24.867Z,19.20
2022-08-03T03:15:55.427Z,19.20
2022-08-03T03:18:26.124Z,19.20
2022-08-03T03:20:54.954Z,19.20
2022-08-03T03:23:25.463Z,19.20
2022-08-03T03:25:55.963Z,19.20
2022-08-03T03:28:25.259Z,19.20
2022-08-03T03:30:53.851Z,19.10
2022-08-03T03:33:22.907Z,19.10
2022-08-03T03:35:53.155Z,19.20
2022-08-03T03:38:21.780Z,19.20
2022-08-03T03:40:50.391Z,19.10
2022-08-03T03:43:19.537Z,19.00
2022-08-03T03:45:49.161Z,19.00
2022-08-03T03:48:17.768Z,19.00
2022-08-03T03:50:47.105Z,19.00
2022-08-03T03:53:17.129Z,18.90
2022-08-03T03:55:59.237Z,19.00
2022-08-03T03:58:32.315Z,19.00
2022-08-03T04:01:01.719Z,19.00
2022-08-03T04:03:30.370Z,19.00
2022-08-03T04:06:16.597Z,18.90
2022-08-03T04:09:04.168Z,18.90
2022-08-03T04:11:39.432Z,18.90
2022-08-03T04:14:11.939Z,18.90
2022-08-03T04:16:44.135Z,18.80
2022-08-03T04:19:19.764Z,18.90
2022-08-03T04:21:53.863Z,18.80
2022-08-03T04:27:41.612Z,18.90
2022-08-03T04:30:11.710Z,18.90
2022-08-03T04:32:45.724Z,18.90
2022-08-03T04:35:14.451Z,18.80
2022-08-03T04:37:47.824Z,18.90
2022-08-03T04:40:23.168Z,18.90
2022-08-03T04:42:52.064Z,18.90
2022-08-03T04:45:21.972Z,18.90
2022-08-03T04:47:51.168Z,19.00
2022-08-03T04:50:21.676Z,19.00
2022-08-03T04:53:07.178Z,19.00
2022-08-03T04:55:37.549Z,19.10
2022-08-03T04:58:06.344Z,19.10
2022-08-03T05:00:34.825Z,19.20
2022-08-03T05:03:03.281Z,19.20
2022-08-03T05:05:36.237Z,19.20
2022-08-03T05:08:20.359Z,19.30
2022-08-03T05:10:59.277Z,19.30
2022-08-03T05:13:28.039Z,19.40
2022-08-03T05:15:56.511Z,19.40
2022-08-03T05:18:26.182Z,19.40
2022-08-03T05:20:54.636Z,19.40
2022-08-03T05:23:23.164Z,19.40
2022-08-03T05:25:51.620Z,19.50
2022-08-03T05:28:21.424Z,19.50
2022-08-03T05:30:49.965Z,19.70
2022-08-03T05:33:18.382Z,19.60
2022-08-03T05:35:57.397Z,19.60
2022-08-03T05:38:35.004Z,19.70
2022-08-03T05:41:21.961Z,19.70
2022-08-03T05:43:54.646Z,19.80
2022-08-03T05:46:23.703Z,19.90
2022-08-03T05:48:52.380Z,20.00
2022-08-03T05:51:20.966Z,20.20
2022-08-03T05:53:49.472Z,20.10
2022-08-03T05:56:17.935Z,20.20
2022-08-03T05:58:47.697Z,20.30
2022-08-03T06:01:18.140Z,20.50
2022-08-03T06:03:46.856Z,20.60
2022-08-03T06:06:15.606Z,20.90
2022-08-03T06:08:44.903Z,21.20
2022-08-03T06:11:13.876Z,21.80
2022-08-03T06:13:42.444Z,22.40
2022-08-03T06:16:11.353Z,23.10
2022-08-03T06:18:41.502Z,23.70
2022-08-03T06:21:15.224Z,24.20
2022-08-03T06:23:53.320Z,24.50
2022-08-03T06:26:25.574Z,24.70
2022-08-03T06:28:54.930Z,24.90
2022-08-03T06:31:32.409Z,25.00
2022-08-03T06:34:33.865Z,25.00
2022-08-03T06:37:01.748Z,24.90
2022-08-03T06:39:31.111Z,24.60
2022-08-03T06:41:59.582Z,24.30
2022-08-03T06:44:28.196Z,24.10
2022-08-03T06:46:56.769Z,24.10
2022-08-03T06:49:26.729Z,24.00
2022-08-03T06:52:05.717Z,24.00
2022-08-03T06:54:36.847Z,24.00
2022-08-03T06:57:08.058Z,24.00
2022-08-03T07:00:08.708Z,24.10
2022-08-03T07:02:24.996Z,24.20
2022-08-03T07:04:58.530Z,24.30
2022-08-03T07:07:26.993Z,24.50
2022-08-03T07:09:57.709Z,24.80
2022-08-03T07:12:27.933Z,24.80
2022-08-03T07:15:00.758Z,24.90
2022-08-03T07:17:31.443Z,24.70
2022-08-03T07:20:02.373Z,24.80
2022-08-03T07:22:30.912Z,24.90
2022-08-03T07:24:59.736Z,24.90
2022-08-03T07:27:30.425Z,25.10
2022-08-03T07:30:00.375Z,25.10
2022-08-03T07:32:31.426Z,25.20
2022-08-03T07:35:01.868Z,25.20
2022-08-03T07:37:31.566Z,25.30
2022-08-03T07:40:01.289Z,25.40
2022-08-03T07:42:30.897Z,25.50
2022-08-03T07:45:01.001Z,25.60
2022-08-03T07:47:35.718Z,25.70
2022-08-03T07:50:08.781Z,25.90
2022-08-03T07:52:50.097Z,25.70
2022-08-03T07:55:20.265Z,25.70
2022-08-03T07:57:49.378Z,25.80
2022-08-03T08:00:20.863Z,25.90
2022-08-03T08:02:49.352Z,26.00
2022-08-03T08:05:19.502Z,26.00
2022-08-03T08:07:50.976Z,26.10
2022-08-03T08:10:21.021Z,26.10
2022-08-03T08:12:50.327Z,26.10
2022-08-03T08:15:18.955Z,26.20
2022-08-03T08:17:49.897Z,26.30
2022-08-03T08:20:27.035Z,26.30
2022-08-03T08:23:00.996Z,26.40
2022-08-03T08:25:31.734Z,26.50
2022-08-03T08:28:29.586Z,26.60
2022-08-03T08:30:51.444Z,26.70
2022-08-03T08:33:23.570Z,26.70
2022-08-03T08:35:54.843Z,26.80
2022-08-03T08:38:24.015Z,26.90
2022-08-03T08:40:52.729Z,27.00
2022-08-03T08:43:21.170Z,27.20
2022-08-03T08:45:51.576Z,27.30
2022-08-03T08:48:25.529Z,27.40
2022-08-03T08:50:56.621Z,27.60
2022-08-03T08:53:28.985Z,27.60
2022-08-03T08:56:01.621Z,27.80
2022-08-03T08:58:35.138Z,27.80
2022-08-03T09:01:04.188Z,28.00
2022-08-03T09:03:34.732Z,28.10
2022-08-03T09:06:05.162Z,28.20
2022-08-03T09:08:34.747Z,28.30
2022-08-03T09:11:03.300Z,28.50
2022-08-03T09:13:31.824Z,28.70
2022-08-03T09:16:14.293Z,28.80
2022-08-03T09:18:44.501Z,28.90
2022-08-03T09:21:34.138Z,29.00
2022-08-03T09:24:07.144Z,29.20
2022-08-03T09:26:39.277Z,29.30
2022-08-03T09:29:14.511Z,29.30
2022-08-03T09:31:45.772Z,29.30
2022-08-03T09:34:17.437Z,29.30
2022-08-03T09:36:48.560Z,29.30
2022-08-03T09:39:19.351Z,29.30
2022-08-03T09:41:50.009Z,29.40
2022-08-03T09:44:25.876Z,29.50
2022-08-03T09:46:57.047Z,29.60
2022-08-03T09:49:26.217Z,29.60
2022-08-03T09:52:31.606Z,29.80
2022-08-03T09:54:45.321Z,29.90
2022-08-03T09:57:24.968Z,30.00
2022-08-03T10:00:04.423Z,30.10
2022-08-03T10:02:47.149Z,30.20
2022-08-03T10:05:17.705Z,30.40
2022-08-03T10:07:50.778Z,30.50
2022-08-03T10:10:28.987Z,30.60
2022-08-03T10:13:02.974Z,30.70
2022-08-03T10:16:24.209Z,30.80
2022-08-03T10:18:22.832Z,30.90
2022-08-03T10:20:57.815Z,31.10
2022-08-03T10:23:33.383Z,31.20
2022-08-03T10:26:04.328Z,31.30
2022-08-03T10:28:39.253Z,31.40
2022-08-03T10:31:12.322Z,31.40
2022-08-03T10:33:51.813Z,31.40
2022-08-03T10:36:25.215Z,31.50
2022-08-03T10:38:57.020Z,31.60
2022-08-03T10:41:32.347Z,31.70
2022-08-03T10:44:05.259Z,31.70
2022-08-03T10:46:37.662Z,31.70
2022-08-03T10:49:09.493Z,31.70
2022-08-03T10:51:38.005Z,31.60
2022-08-03T10:54:11.946Z,31.60
2022-08-03T10:57:03.433Z,31.80
2022-08-03T11:00:03.680Z,31.80
2022-08-03T11:03:04.290Z,32.10
2022-08-03T11:05:34.444Z,32.30
2022-08-03T11:08:30.336Z,32.60
2022-08-03T11:11:02.737Z,32.70
2022-08-03T11:13:33.915Z,32.90
2022-08-03T11:16:21.834Z,33.10
2022-08-03T11:18:59.419Z,33.30
2022-08-03T11:22:01.296Z,33.40
2022-08-03T11:24:58.414Z,33.60
2022-08-03T11:27:29.909Z,33.80
2022-08-03T11:30:00.834Z,34.00
2022-08-03T11:32:56.223Z,34.20
2022-08-03T11:35:26.232Z,34.30
2022-08-03T11:38:07.105Z,34.40
2022-08-03T11:40:38.731Z,34.50
2022-08-03T11:43:10.115Z,34.70
2022-08-03T11:45:38.949Z,34.80
2022-08-03T11:48:17.882Z,34.90
2022-08-03T11:50:46.386Z,35.00
2022-08-03T11:53:20.004Z,35.00
2022-08-03T11:55:49.876Z,35.00
2022-08-03T11:58:58.058Z,35.20
2022-08-03T12:01:12.424Z,35.20
2022-08-03T12:03:40.997Z,35.30
2022-08-03T12:06:11.272Z,35.30
2022-08-03T12:08:40.623Z,35.40
2022-08-03T12:11:11.261Z,35.50
2022-08-03T12:14:45.692Z,35.60
2022-08-03T12:16:33.882Z,35.80
2022-08-03T12:19:05.442Z,35.90
2022-08-03T12:21:34.016Z,36.00
2022-08-03T12:24:04.298Z,36.10
2022-08-03T12:26:45.239Z,36.30
2022-08-03T12:29:28.854Z,36.50
2022-08-03T12:31:57.792Z,36.70
2022-08-03T12:34:47.503Z,36.80
2022-08-03T12:37:22.819Z,36.70
2022-08-03T12:40:01.403Z,36.70
2022-08-03T12:42:35.191Z,36.70
2022-08-03T12:45:24.430Z,36.70
2022-08-03T12:47:54.476Z,36.70
2022-08-03T12:50:27.767Z,36.70
2022-08-03T12:52:56.775Z,36.80
2022-08-03T12:55:27.602Z,36.90
2022-08-03T12:57:56.044Z,36.90
2022-08-03T13:00:29.567Z,37.10
2022-08-03T13:03:39.251Z,37.10
2022-08-03T13:05:52.891Z,37.20
2022-08-03T13:08:22.131Z,37.40
2022-08-03T13:10:50.713Z,37.40
2022-08-03T13:13:20.732Z,37.40
2022-08-03T13:15:50.719Z,37.40
2022-08-03T13:18:19.115Z,37.30
2022-08-03T13:20:47.596Z,37.30
2022-08-03T13:23:22.714Z,37.30
2022-08-03T13:25:51.313Z,37.30
2022-08-03T13:28:24.767Z,37.30
2022-08-03T13:30:55.174Z,37.20
2022-08-03T13:33:23.631Z,37.00
2022-08-03T13:35:52.075Z,36.80
2022-08-03T13:38:21.646Z,36.80
2022-08-03T13:40:55.962Z,36.90
2022-08-03T13:43:24.417Z,36.80
2022-08-03T13:45:57.749Z,36.80
2022-08-03T13:48:36.600Z,36.70
2022-08-03T13:51:21.657Z,36.70
2022-08-03T13:53:52.170Z,36.80
2022-08-03T13:56:20.794Z,37.00
2022-08-03T13:58:49.260Z,37.10
2022-08-03T14:01:34.294Z,37.10
2022-08-03T14:04:15.931Z,37.00
2022-08-03T14:06:50.908Z,37.10
2022-08-03T14:09:19.392Z,37.20
2022-08-03T14:12:08.318Z,37.30
2022-08-03T14:14:36.676Z,37.50
2022-08-03T14:17:06.626Z,37.70
2022-08-03T14:19:52.645Z,37.90
2022-08-03T14:22:22.455Z,38.00
2022-08-03T14:24:50.896Z,38.10
2022-08-03T14:27:20.372Z,38.10
2022-08-03T14:29:48.953Z,38.00
2022-08-03T14:32:18.849Z,37.90
2022-08-03T14:34:47.370Z,37.90
2022-08-03T14:37:15.995Z,37.60
2022-08-03T14:40:00.310Z,37.30
2022-08-03T14:42:29.220Z,37.10
2022-08-03T14:45:03.405Z,37.00
2022-08-03T14:47:36.484Z,37.00
2022-08-03T14:50:37.134Z,36.90
2022-08-03T14:53:07.788Z,36.80
2022-08-03T14:55:38.867Z,36.80
2022-08-03T14:58:20.562Z,36.70
2022-08-03T15:00:50.567Z,36.70
2022-08-03T15:03:23.597Z,36.70
2022-08-03T15:05:53.110Z,36.70
2022-08-03T15:08:22.044Z,36.70
2022-08-03T15:10:50.956Z,36.80
2022-08-03T15:13:20.463Z,36.90
2022-08-03T15:15:49.556Z,36.90
2022-08-03T15:18:18.329Z,36.80
2022-08-03T15:20:50.787Z,36.70
2022-08-03T15:23:19.710Z,36.50
2022-08-03T15:26:05.427Z,36.40
2022-08-03T15:28:37.552Z,36.30
2022-08-03T15:31:06.943Z,36.10
2022-08-03T15:33:35.527Z,36.10
2022-08-03T15:36:06.094Z,35.90
2022-08-03T15:38:34.499Z,35.80
2022-08-03T15:41:03.123Z,35.70
2022-08-03T15:43:31.561Z,35.70
2022-08-03T15:46:28.261Z,35.60
2022-08-03T15:48:48.460Z,35.60
2022-08-03T15:51:18.305Z,35.50
2022-08-03T15:53:46.870Z,35.50
2022-08-03T15:56:18.593Z,35.50
2022-08-03T15:59:09.775Z,35.40
2022-08-03T16:01:36.280Z,35.40
2022-08-03T16:04:04.977Z,35.30
2022-08-03T16:06:36.317Z,35.10
2022-08-03T16:09:24.026Z,34.90
2022-08-03T16:11:55.959Z,34.70
2022-08-03T16:14:34.863Z,34.70
2022-08-03T16:17:06.471Z,34.80
2022-08-03T16:19:35.679Z,34.90
2022-08-03T16:22:05.553Z,35.10
2022-08-03T16:24:35.361Z,35.30
2022-08-03T16:27:06.382Z,35.50
2022-08-03T16:29:46.277Z,35.50
2022-08-03T16:32:14.688Z,35.50
2022-08-03T16:34:43.527Z,35.50
2022-08-03T16:37:36.973Z,35.40
2022-08-03T16:40:01.750Z,35.30
2022-08-03T16:42:30.963Z,35.20
2022-08-03T16:44:59.463Z,35.20
2022-08-03T16:47:27.908Z,35.00
2022-08-03T16:49:56.814Z,34.90
2022-08-03T16:52:27.321Z,34.70
2022-08-03T16:54:55.916Z,34.60
2022-08-03T16:57:58.241Z,34.50
2022-08-03T17:00:33.829Z,34.30
2022-08-03T17:03:12.825Z,34.10
2022-08-03T17:05:50.820Z,33.80
2022-08-03T17:08:26.623Z,33.60
2022-08-03T17:11:04.064Z,33.40
2022-08-03T17:13:39.860Z,33.30
2022-08-03T17:16:11.990Z,33.30
2022-08-03T17:18:53.410Z,33.10
2022-08-03T17:21:29.450Z,32.90
2022-08-03T17:24:12.323Z,32.70
2022-08-03T17:26:44.747Z,32.50
2022-08-03T17:29:14.775Z,32.20
2022-08-03T17:31:49.479Z,32.10
2022-08-03T17:34:19.111Z,31.90
2022-08-03T17:37:03.661Z,31.70
2022-08-03T17:42:30.422Z,31.40
2022-08-03T17:45:03.923Z,31.20
2022-08-03T17:47:42.248Z,31.10
2022-08-03T17:50:25.050Z,31.00
2022-08-03T17:53:07.749Z,30.90
2022-08-03T17:56:07.728Z,30.80
2022-08-03T17:59:08.223Z,30.80
2022-08-03T18:02:15.268Z,30.60
2022-08-03T18:04:57.434Z,30.50
2022-08-03T18:07:40.988Z,30.40
2022-08-03T18:10:24.201Z,30.20
2022-08-03T18:12:58.948Z,30.10
2022-08-03T18:15:31.964Z,30.00
2022-08-03T18:18:10.297Z,29.80
2022-08-03T18:20:41.945Z,29.70
2022-08-03T18:23:25.261Z,29.60
2022-08-03T18:26:12.278Z,29.50
2022-08-03T18:28:42.981Z,29.50
2022-08-03T18:31:12.695Z,29.30
2022-08-03T18:34:32.656Z,29.20
2022-08-03T18:36:54.799Z,29.10
2022-08-03T18:39:24.488Z,28.90
2022-08-03T18:41:53.815Z,28.90
2022-08-03T18:44:37.426Z,28.70
2022-08-03T18:47:28.180Z,28.70
2022-08-03T18:50:20.238Z,28.60
2022-08-03T18:52:55.841Z,28.50
2022-08-03T18:55:33.554Z,28.40
2022-08-03T18:58:17.995Z,28.30
2022-08-03T19:00:54.707Z,28.10
2022-08-03T19:03:41.521Z,28.10
2022-08-03T19:06:19.913Z,28.00
2022-08-03T19:08:55.571Z,27.90
2022-08-03T19:11:27.789Z,27.70
2022-08-03T19:14:00.187Z,27.60
2022-08-03T19:16:38.799Z,27.50
2022-08-03T19:19:14.527Z,27.30
2022-08-03T19:21:44.460Z,27.20
2022-08-03T19:24:14.599Z,27.10
2022-08-03T19:26:44.287Z,27.00
2022-08-03T19:29:18.664Z,26.90
2022-08-03T19:31:59.719Z,26.80
2022-08-03T19:34:30.112Z,26.70
2022-08-03T19:36:59.320Z,26.60
2022-08-03T19:39:28.405Z,26.50
2022-08-03T19:42:09.179Z,26.50
2022-08-03T19:44:52.104Z,26.40
2022-08-03T19:47:28.975Z,26.30
2022-08-03T19:50:06.283Z,26.10
2022-08-03T19:52:47.103Z,26.10
2022-08-03T19:55:17.729Z,26.00
2022-08-03T19:57:49.221Z,25.80
2022-08-03T20:00:26.677Z,25.70
2022-08-03T20:03:02.864Z,25.60
2022-08-03T20:05:45.008Z,25.50
2022-08-03T20:08:22.962Z,25.50
2022-08-03T20:10:51.463Z,25.40
2022-08-03T20:13:21.172Z,25.30
2022-08-03T20:15:53.513Z,25.20
2022-08-03T20:18:23.453Z,25.10
2022-08-03T20:20:53.853Z,25.00
2022-08-03T20:23:23.869Z,24.90
2022-08-03T20:25:59.082Z,24.80
2022-08-03T20:28:32.129Z,24.70
2022-08-03T20:31:01.774Z,24.60
2022-08-03T20:33:48.515Z,24.50
2022-08-03T20:36:18.677Z,24.40
2022-08-03T20:38:48.233Z,24.40
2022-08-03T20:41:18.175Z,24.30
2022-08-03T20:43:49.333Z,24.20
2022-08-03T20:46:31.093Z,24.10
2022-08-03T20:49:09.010Z,24.10
2022-08-03T20:51:52.502Z,24.00
2022-08-03T20:54:31.259Z,23.90
2022-08-03T20:57:03.588Z,23.90
2022-08-03T20:59:50.800Z,23.80
2022-08-03T21:02:29.766Z,23.70
2022-08-03T21:05:02.972Z,23.60
2022-08-03T21:08:04.222Z,23.50
2022-08-03T21:10:29.375Z,23.50
2022-08-03T21:16:13.224Z,23.40
2022-08-03T21:18:45.296Z,23.40
2022-08-03T21:21:16.586Z,23.20
2022-08-03T21:23:49.142Z,23.30
2022-08-03T21:26:19.293Z,23.10
2022-08-03T21:28:48.769Z,23.10
2022-08-03T21:31:24.368Z,23.00
2022-08-03T21:33:56.795Z,23.00
2022-08-03T21:36:28.161Z,23.00
2022-08-03T21:38:58.004Z,22.90
2022-08-03T21:41:28.114Z,22.80
2022-08-03T21:43:57.188Z,22.80
2022-08-03T21:46:27.396Z,22.80
2022-08-03T21:50:04.877Z,22.70
2022-08-03T21:51:51.009Z,22.70
2022-08-03T21:54:21.787Z,22.60
2022-08-03T21:56:52.434Z,22.60
2022-08-03T21:59:23.057Z,22.40
2022-08-03T22:01:55.310Z,22.50
2022-08-03T22:04:55.146Z,22.40
2022-08-03T22:07:19.306Z,22.40
2022-08-03T22:09:50.970Z,22.40
2022-08-03T22:12:23.702Z,22.30
2022-08-03T22:15:00.514Z,22.30
2022-08-03T22:17:54.070Z,22.20
2022-08-03T22:20:21.821Z,22.20
2022-08-03T22:22:56.614Z,22.10
2022-08-03T22:25:29.709Z,22.10
2022-08-03T22:28:01.002Z,22.10
2022-08-03T22:30:31.463Z,22.00
2022-08-03T22:33:02.237Z,21.90
2022-08-03T22:35:33.044Z,22.00
2022-08-03T22:38:18.109Z,21.90
2022-08-03T22:40:48.831Z,21.90
2022-08-03T22:43:17.809Z,21.70
2022-08-03T22:46:10.239Z,21.70
2022-08-03T22:48:40.718Z,21.70
2022-08-03T22:51:09.811Z,21.70
2022-08-03T22:53:40.425Z,21.70
2022-08-03T22:56:09.192Z,21.60
2022-08-03T22:58:37.612Z,21.60
2022-08-03T23:01:09.465Z,21.60
2022-08-03T23:04:00.056Z,21.60
2022-08-03T23:06:35.589Z,21.50
2022-08-03T23:09:09.275Z,21.40
2022-08-03T23:11:42.798Z,21.40
2022-08-03T23:14:17.271Z,21.40
2022-08-03T23:16:46.782Z,21.30
2022-08-03T23:19:25.125Z,21.40
2022-08-03T23:22:00.535Z,21.30
2022-08-03T23:24:36.745Z,21.30
2022-08-03T23:27:06.707Z,21.20
2022-08-03T23:29:36.569Z,21.30
2022-08-03T23:32:06.486Z,21.20
2022-08-03T23:34:52.964Z,21.10
2022-08-03T23:37:21.685Z,21.10
2022-08-03T23:39:53.482Z,21.10
2022-08-03T23:42:22.819Z,21.00
2022-08-03T23:44:55.756Z,21.00
2022-08-03T23:47:46.985Z,21.00
2022-08-03T23:50:14.157Z,20.90
2022-08-03T23:52:51.650Z,20.90
2022-08-03T23:55:41.273Z,20.80
2022-08-03T23:58:23.819Z,20.80
